Time;durP1;ratioP1;P1;durP2;ratioP2;P2;SDS_P1;SDS_P2;PMS_P1;PMS_P2;Temp;Humidity;BMP_temperature;BMP_pressure;BME280_temperature;BME280_humidity;BME280_pressure;Samples;Min_cycle;Max_cycle;Signal;HPM_P1;HPM_P2
2021/12/26 00:01:26;;;;;;;0.90;0.70;;;-1.60;99.90;;;;;;5011986;28;21257;-69
2021/12/26 00:03:54;;;;;;;0.97;0.87;;;-1.70;99.90;;;;;;5015024;28;20455;-69
2021/12/26 00:06:26;;;;;;;4.53;4.10;;;-1.70;99.90;;;;;;5010445;28;21183;-69
2021/12/26 00:08:55;;;;;;;0.90;0.80;;;-1.60;99.90;;;;;;5015281;28;20422;-68
2021/12/26 00:11:23;;;;;;;1.43;1.20;;;-1.70;99.90;;;;;;5003156;28;20427;-69
2021/12/26 00:13:52;;;;;;;2.40;2.20;;;-1.60;99.90;;;;;;5013868;28;20492;-68
2021/12/26 00:16:19;;;;;;;6.13;1.83;;;-1.50;99.90;;;;;;5004480;28;21455;-69
2021/12/26 00:18:47;;;;;;;0.90;0.80;;;-1.40;99.90;;;;;;5006638;28;20463;-68
2021/12/26 00:21:14;;;;;;;1.17;0.90;;;-1.30;99.90;;;;;;5009046;28;20547;-68
2021/12/26 00:23:43;;;;;;;1.10;1.00;;;-1.50;99.90;;;;;;5010008;28;20535;-68
2021/12/26 00:26:10;;;;;;;0.90;0.80;;;-1.70;99.90;;;;;;5010184;28;20835;-69
2021/12/26 00:28:38;;;;;;;1.27;1.17;;;-1.70;99.90;;;;;;5011538;28;20840;-69
2021/12/26 00:31:05;;;;;;;2.13;1.73;;;-1.60;99.90;;;;;;5010615;28;20894;-70
2021/12/26 00:33:33;;;;;;;0.90;0.70;;;-1.70;99.90;;;;;;5001923;28;20970;-68
2021/12/26 00:36:00;;;;;;;4.53;1.50;;;-1.60;99.90;;;;;;5005670;28;20438;-69
2021/12/26 00:38:28;;;;;;;1.00;0.83;;;-1.50;99.90;;;;;;5003677;28;21111;-69
2021/12/26 00:40:57;;;;;;;0.90;0.80;;;-1.40;99.90;;;;;;5001140;28;20852;-68
2021/12/26 00:43:24;;;;;;;1.00;0.90;;;-1.50;99.90;;;;;;5008891;28;20463;-69
2021/12/26 00:45:51;;;;;;;1.10;0.80;;;-1.50;99.90;;;;;;5007123;28;20492;-68
2021/12/26 00:48:18;;;;;;;2.80;2.50;;;-1.40;99.90;;;;;;5014482;28;20940;-68
2021/12/26 00:50:45;;;;;;;1.33;1.23;;;-1.60;99.90;;;;;;5001919;28;20487;-69
2021/12/26 00:53:12;;;;;;;1.00;0.90;;;-1.50;99.90;;;;;;5010564;28;20669;-67
2021/12/26 00:55:39;;;;;;;1.10;1.00;;;-1.40;99.90;;;;;;5011692;28;20478;-70
2021/12/26 00:58:09;;;;;;;1.03;0.90;;;-1.40;99.90;;;;;;5001972;28;20539;-70
2021/12/26 01:00:39;;;;;;;1.47;1.37;;;-1.60;99.90;;;;;;5006542;28;20444;-69
2021/12/26 01:03:07;;;;;;;2.90;1.60;;;-1.70;99.90;;;;;;5011747;28;20891;-68
2021/12/26 01:05:37;;;;;;;0.90;0.77;;;-1.70;99.90;;;;;;5001554;28;20447;-69
2021/12/26 01:08:08;;;;;;;2.13;1.90;;;-1.70;99.90;;;;;;5004994;28;21051;-68
2021/12/26 01:10:39;;;;;;;1.37;1.27;;;-1.70;99.90;;;;;;5005728;28;20920;-69
2021/12/26 01:13:15;;;;;;;1.80;1.20;;;-1.60;99.90;;;;;;5003796;28;20542;-68
2021/12/26 01:15:43;;;;;;;0.90;0.70;;;-1.40;99.90;;;;;;5009249;28;20831;-69
2021/12/26 01:18:11;;;;;;;2.20;2.00;;;-1.60;99.90;;;;;;5005360;28;20435;-68
2021/12/26 01:20:45;;;;;;;0.90;0.70;;;-1.60;99.90;;;;;;5002800;28;20460;-69
2021/12/26 01:23:15;;;;;;;1.00;0.90;;;-1.60;99.90;;;;;;5004527;28;20442;-69
2021/12/26 01:25:42;;;;;;;1.13;1.00;;;-1.80;99.90;;;;;;5007645;28;20462;-68
2021/12/26 01:28:11;;;;;;;1.43;1.23;;;-1.70;99.90;;;;;;5006439;28;20534;-69
2021/12/26 01:30:40;;;;;;;2.33;1.20;;;-1.60;99.90;;;;;;5012012;28;20423;-69
2021/12/26 01:33:07;;;;;;;1.90;1.80;;;-1.90;99.90;;;;;;5011337;28;20492;-69
2021/12/26 01:35:34;;;;;;;1.57;1.47;;;-2.00;99.90;;;;;;5004147;28;21373;-69
2021/12/26 01:38:01;;;;;;;0.90;0.70;;;-2.00;99.90;;;;;;5005372;28;20539;-69
2021/12/26 01:40:30;;;;;;;2.47;2.27;;;-2.00;99.90;;;;;;5007195;28;20508;-68
2021/12/26 01:43:01;;;;;;;0.90;0.80;;;-2.00;99.90;;;;;;5006774;28;20469;-66
2021/12/26 01:45:30;;;;;;;1.20;1.00;;;-1.90;99.90;;;;;;5011299;28;21684;-69
2021/12/26 01:47:59;;;;;;;1.00;0.90;;;-2.00;99.90;;;;;;5005999;28;21220;-69
2021/12/26 01:50:27;;;;;;;1.40;1.30;;;-2.00;99.90;;;;;;5001927;28;20574;-68
2021/12/26 01:52:54;;;;;;;1.40;1.30;;;-1.90;99.90;;;;;;5007160;28;20484;-66
2021/12/26 01:55:24;;;;;;;2.53;2.33;;;-1.80;99.90;;;;;;5007471;28;20439;-69
2021/12/26 01:57:57;;;;;;;4.00;1.57;;;-1.80;99.90;;;;;;5012285;28;20864;-69
2021/12/26 02:00:25;;;;;;;3.10;1.57;;;-1.80;99.90;;;;;;4999034;28;21002;-69
2021/12/26 02:02:54;;;;;;;1.67;1.50;;;-1.80;99.90;;;;;;5008082;28;20439;-68
2021/12/26 02:05:21;;;;;;;3.30;2.67;;;-1.80;99.90;;;;;;5015415;28;20461;-67
2021/12/26 02:07:48;;;;;;;1.27;1.17;;;-1.80;99.90;;;;;;5013551;28;20465;-67
2021/12/26 02:10:15;;;;;;;10.93;3.07;;;-1.80;99.90;;;;;;5009549;28;20487;-67
2021/12/26 02:12:43;;;;;;;4.50;3.97;;;-1.80;99.90;;;;;;5005676;28;22883;-67
2021/12/26 02:15:11;;;;;;;5.63;1.10;;;-1.80;99.90;;;;;;5006620;28;20564;-67
2021/12/26 02:17:38;;;;;;;1.77;1.67;;;-1.80;99.90;;;;;;5012266;28;20489;-67
2021/12/26 02:20:29;;;;;;;3.10;2.87;;;-1.80;99.90;;;;;;5011602;28;20436;-67
2021/12/26 02:23:00;;;;;;;2.03;1.77;;;-1.80;99.90;;;;;;5005985;28;20451;-67
2021/12/26 02:27:31;;;;;;;1.80;1.70;;;-1.80;99.90;;;;;;5013854;28;20440;-66
2021/12/26 02:28:20;;;;;;;4.60;1.30;;;-1.70;99.90;;;;;;5009250;28;20535;-67
2021/12/26 02:30:47;;;;;;;1.20;1.10;;;-1.70;99.90;;;;;;5010497;28;20415;-67
2021/12/26 02:33:16;;;;;;;1.30;1.20;;;-1.70;99.90;;;;;;5015173;28;20455;-67
2021/12/26 02:35:44;;;;;;;2.97;2.57;;;-1.60;99.90;;;;;;5012218;28;20954;-67
2021/12/26 02:38:13;;;;;;;1.60;1.50;;;-1.80;99.90;;;;;;5011572;28;20992;-67
2021/12/26 02:40:41;;;;;;;1.63;1.53;;;-1.60;99.90;;;;;;5014723;28;21098;-66
2021/12/26 02:43:10;;;;;;;2.60;2.40;;;-1.60;99.90;;;;;;5013703;28;20847;-67
2021/12/26 02:45:37;;;;;;;2.80;1.47;;;-1.70;99.90;;;;;;5002951;28;20439;-67
2021/12/26 02:48:07;;;;;;;1.70;1.60;;;-1.70;99.90;;;;;;5013846;28;20468;-67
2021/12/26 02:50:34;;;;;;;1.20;1.00;;;-1.80;99.90;;;;;;5008747;28;20623;-67
2021/12/26 02:53:06;;;;;;;7.37;2.73;;;-1.80;99.90;;;;;;5007464;28;20606;-67
2021/12/26 02:55:34;;;;;;;3.13;1.67;;;-1.80;99.90;;;;;;5015452;28;20451;-67
2021/12/26 02:58:10;;;;;;;2.33;2.13;;;-1.80;99.90;;;;;;5015193;28;20937;-68
2021/12/26 03:00:41;;;;;;;2.30;1.10;;;-1.70;99.90;;;;;;5004811;28;20452;-67
2021/12/26 03:03:09;;;;;;;5.13;4.43;;;-1.70;99.90;;;;;;5010844;28;20492;-68
2021/12/26 03:05:38;;;;;;;1.53;1.43;;;-1.70;99.90;;;;;;5012600;28;20473;-68
2021/12/26 03:08:09;;;;;;;7.27;2.00;;;-1.70;99.90;;;;;;5013466;28;20547;-67
2021/12/26 03:10:37;;;;;;;2.10;1.47;;;-1.60;99.90;;;;;;5014057;28;20505;-68
2021/12/26 03:13:08;;;;;;;1.40;1.30;;;-1.60;99.90;;;;;;5003677;28;20725;-66
2021/12/26 03:15:35;;;;;;;1.27;1.17;;;-1.70;99.90;;;;;;5010582;28;20472;-68
2021/12/26 03:18:03;;;;;;;0.93;0.77;;;-1.90;99.90;;;;;;5016058;28;20538;-66
2021/12/26 03:20:34;;;;;;;1.13;0.93;;;-1.80;99.90;;;;;;5006794;28;20535;-67
2021/12/26 03:23:01;;;;;;;1.10;0.93;;;-1.80;99.90;;;;;;5014821;28;20546;-68
2021/12/26 03:25:32;;;;;;;1.37;1.10;;;-1.80;99.90;;;;;;5012018;28;20468;-69
2021/12/26 03:27:59;;;;;;;1.03;0.93;;;-1.70;99.90;;;;;;5008642;28;20929;-66
2021/12/26 03:30:29;;;;;;;3.00;2.80;;;-1.80;99.90;;;;;;5010761;28;20484;-68
2021/12/26 03:32:58;;;;;;;0.90;0.80;;;-1.80;99.90;;;;;;5007841;28;20913;-67
2021/12/26 03:35:27;;;;;;;0.90;0.80;;;-1.90;99.90;;;;;;5005531;28;20492;-67
2021/12/26 03:37:57;;;;;;;1.03;0.90;;;-1.80;99.90;;;;;;5005566;28;20987;-67
2021/12/26 03:40:24;;;;;;;1.00;0.80;;;-1.70;99.90;;;;;;5013311;28;20588;-67
2021/12/26 03:42:53;;;;;;;1.00;0.90;;;-1.60;99.90;;;;;;5007701;28;20471;-67
2021/12/26 03:45:21;;;;;;;1.10;1.00;;;-1.50;99.90;;;;;;5002176;28;20458;-68
2021/12/26 03:47:50;;;;;;;1.53;1.23;;;-1.50;99.90;;;;;;5009738;28;20568;-68
2021/12/26 03:50:19;;;;;;;2.03;1.33;;;-1.50;99.90;;;;;;5008414;28;20449;-67
2021/12/26 03:52:46;;;;;;;0.90;0.70;;;-1.40;99.90;;;;;;5003182;28;20467;-66
2021/12/26 03:55:14;;;;;;;1.10;1.00;;;-1.50;99.90;;;;;;5009295;28;20483;-67
2021/12/26 03:57:41;;;;;;;0.90;0.80;;;-1.50;99.90;;;;;;5011784;28;20489;-67
2021/12/26 04:00:11;;;;;;;1.57;1.07;;;-1.40;99.90;;;;;;5011614;28;20452;-67
2021/12/26 04:02:38;;;;;;;1.10;1.00;;;-1.40;99.90;;;;;;4999187;28;20436;-66
2021/12/26 04:05:05;;;;;;;1.00;0.90;;;-1.60;99.90;;;;;;4969755;28;22982;-67
2021/12/26 04:07:32;;;;;;;1.10;1.00;;;-1.60;99.90;;;;;;5000745;28;21892;-67
2021/12/26 04:09:59;;;;;;;2.37;1.37;;;-1.60;99.90;;;;;;5013979;28;20514;-68
2021/12/26 04:12:34;;;;;;;1.57;1.47;;;-1.60;99.90;;;;;;5012732;28;20428;-67
2021/12/26 04:15:01;;;;;;;2.03;1.63;;;-1.60;99.90;;;;;;4995362;28;20470;-66
2021/12/26 04:17:29;;;;;;;0.90;0.80;;;-1.50;99.90;;;;;;5007714;28;20450;-66
2021/12/26 04:19:56;;;;;;;2.27;1.53;;;-1.50;99.90;;;;;;5011538;28;20508;-67
2021/12/26 04:22:23;;;;;;;1.30;1.20;;;-1.50;99.90;;;;;;5010839;28;20562;-67
2021/12/26 04:24:50;;;;;;;0.90;0.80;;;-1.60;99.90;;;;;;5012034;28;20566;-66
2021/12/26 04:27:17;;;;;;;0.90;0.70;;;-1.70;99.90;;;;;;5004052;28;20439;-66
2021/12/26 04:29:44;;;;;;;1.30;0.93;;;-1.80;99.90;;;;;;5007485;28;20472;-68
2021/12/26 04:32:11;;;;;;;1.13;1.03;;;-1.70;99.90;;;;;;5012495;28;20428;-67
2021/12/26 04:34:40;;;;;;;0.90;0.80;;;-1.70;99.90;;;;;;5004096;28;20463;-66
2021/12/26 04:37:07;;;;;;;1.23;1.07;;;-1.60;99.90;;;;;;5007112;28;20505;-66
2021/12/26 04:39:34;;;;;;;1.13;1.03;;;-1.70;99.90;;;;;;5008519;28;20439;-67
2021/12/26 04:42:01;;;;;;;1.53;1.43;;;-1.70;99.90;;;;;;5009048;28;20496;-66
2021/12/26 04:44:30;;;;;;;1.30;0.90;;;-1.70;99.90;;;;;;5011142;28;20500;-71
2021/12/26 04:46:57;;;;;;;0.90;0.70;;;-1.70;99.90;;;;;;5010248;28;20460;-68
2021/12/26 04:49:24;;;;;;;2.80;1.27;;;-1.70;99.90;;;;;;5011099;28;20584;-67
2021/12/26 04:51:52;;;;;;;1.30;0.97;;;-1.60;99.90;;;;;;5010011;28;20520;-68
2021/12/26 04:54:19;;;;;;;1.10;1.00;;;-1.50;99.90;;;;;;5011597;28;20571;-67
2021/12/26 04:56:46;;;;;;;0.90;0.73;;;-1.60;99.90;;;;;;5008598;28;20492;-67
2021/12/26 04:59:13;;;;;;;1.07;0.90;;;-1.60;99.90;;;;;;5012507;28;21062;-68
2021/12/26 05:01:41;;;;;;;1.53;1.43;;;-1.70;99.90;;;;;;5008210;28;20838;-68
2021/12/26 05:04:10;;;;;;;0.90;0.70;;;-1.60;99.90;;;;;;5007775;28;20499;-66
2021/12/26 05:06:37;;;;;;;3.13;1.23;;;-1.70;99.90;;;;;;4995998;28;21003;-67
2021/12/26 05:09:06;;;;;;;2.73;2.53;;;-1.50;99.90;;;;;;4994931;28;20556;-67
2021/12/26 05:11:34;;;;;;;1.10;1.00;;;-1.40;99.90;;;;;;4988745;28;20733;-66
2021/12/26 05:14:01;;;;;;;1.00;0.90;;;-1.40;99.90;;;;;;5012696;28;20447;-66
2021/12/26 05:16:28;;;;;;;0.90;0.70;;;-1.50;99.90;;;;;;5000072;28;20463;-67
2021/12/26 05:18:55;;;;;;;1.73;1.63;;;-1.50;99.90;;;;;;5005167;28;20463;-66
2021/12/26 05:21:23;;;;;;;0.90;0.70;;;-1.60;99.90;;;;;;4996999;28;20435;-69
2021/12/26 05:23:50;;;;;;;0.97;0.83;;;-1.80;99.90;;;;;;4991030;28;20528;-68
2021/12/26 05:26:18;;;;;;;0.90;0.70;;;-1.70;99.90;;;;;;5005453;28;20454;-68
2021/12/26 05:28:45;;;;;;;0.90;0.70;;;-1.70;99.90;;;;;;5012394;28;20446;-69
2021/12/26 05:31:12;;;;;;;1.97;1.40;;;-1.60;99.90;;;;;;5006203;28;20500;-66
2021/12/26 05:33:39;;;;;;;0.90;0.80;;;-1.60;99.90;;;;;;4999616;28;20497;-67
2021/12/26 05:36:06;;;;;;;1.77;1.67;;;-1.40;99.90;;;;;;5003662;28;21091;-68
2021/12/26 05:38:33;;;;;;;0.90;0.70;;;-1.30;99.90;;;;;;5012052;28;20450;-68
2021/12/26 05:41:00;;;;;;;0.90;0.80;;;-1.40;99.90;;;;;;5013164;28;20543;-68
2021/12/26 05:43:28;;;;;;;2.63;2.43;;;-1.30;99.90;;;;;;4993370;28;20486;-68
2021/12/26 05:45:55;;;;;;;2.30;2.20;;;-1.30;99.90;;;;;;4990328;28;20476;-67
2021/12/26 05:48:22;;;;;;;0.97;0.87;;;-1.20;99.90;;;;;;5014076;28;20438;-66
2021/12/26 05:50:49;;;;;;;0.90;0.70;;;-1.20;99.90;;;;;;5009279;28;20467;-68
2021/12/26 05:53:16;;;;;;;1.93;1.07;;;-1.20;99.90;;;;;;5011048;28;20550;-67
2021/12/26 05:55:43;;;;;;;1.47;1.20;;;-1.30;99.90;;;;;;5005271;28;20648;-68
2021/12/26 05:58:10;;;;;;;0.90;0.70;;;-1.30;99.90;;;;;;5010090;28;20442;-69
2021/12/26 06:00:39;;;;;;;1.30;1.20;;;-1.30;99.90;;;;;;4995581;28;20463;-69
2021/12/26 06:03:06;;;;;;;1.20;1.10;;;-1.30;99.90;;;;;;4998175;28;20484;-66
2021/12/26 06:05:33;;;;;;;1.00;0.90;;;-1.30;99.90;;;;;;5000863;28;20460;-66
2021/12/26 06:08:00;;;;;;;1.10;1.00;;;-1.30;99.90;;;;;;4998397;28;20500;-65
2021/12/26 06:10:27;;;;;;;0.90;0.70;;;-1.40;99.90;;;;;;5000436;28;20438;-67
2021/12/26 06:12:53;;;;;;;2.50;1.83;;;-1.50;99.90;;;;;;5012417;28;20422;-69
2021/12/26 06:15:22;;;;;;;0.90;0.70;;;-1.40;99.90;;;;;;5000047;28;20491;-67
2021/12/26 06:17:51;;;;;;;1.17;1.07;;;-1.40;99.90;;;;;;5004400;28;20438;-68
2021/12/26 06:20:18;;;;;;;1.10;0.90;;;-1.50;99.90;;;;;;5009889;28;20493;-68
2021/12/26 06:22:46;;;;;;;12.70;2.70;;;-1.50;99.90;;;;;;5001448;28;20628;-67
2021/12/26 06:25:15;;;;;;;1.10;1.00;;;-1.50;99.90;;;;;;5005881;28;20461;-67
2021/12/26 06:27:42;;;;;;;1.07;0.97;;;-1.40;99.90;;;;;;5004176;28;20464;-68
2021/12/26 06:30:11;;;;;;;1.23;1.13;;;-1.40;99.90;;;;;;5006852;28;20626;-67
2021/12/26 06:32:38;;;;;;;2.83;1.93;;;-1.30;99.90;;;;;;5009372;28;20875;-67
2021/12/26 06:35:08;;;;;;;1.20;1.07;;;-1.40;99.90;;;;;;4998630;28;21066;-68
2021/12/26 06:37:36;;;;;;;1.67;1.20;;;-1.30;99.90;;;;;;5001324;28;24514;-68
2021/12/26 06:40:03;;;;;;;1.00;0.90;;;-1.30;99.90;;;;;;5004738;28;20567;-67
2021/12/26 06:42:32;;;;;;;1.50;1.17;;;-1.30;99.90;;;;;;5003164;28;20469;-68
2021/12/26 06:44:59;;;;;;;2.00;1.67;;;-1.30;99.90;;;;;;4995671;28;20458;-67
2021/12/26 06:47:26;;;;;;;1.30;1.20;;;-1.30;99.90;;;;;;4997007;28;20526;-67
2021/12/26 06:49:53;;;;;;;1.40;1.30;;;-1.30;99.90;;;;;;5010254;28;20564;-68
2021/12/26 06:52:21;;;;;;;1.33;1.23;;;-1.20;99.90;;;;;;5005279;28;20964;-68
2021/12/26 06:54:48;;;;;;;1.93;1.53;;;-1.20;99.90;;;;;;5004879;28;20878;-67
2021/12/26 06:57:16;;;;;;;1.13;1.03;;;-1.30;99.90;;;;;;5000455;28;20465;-68
2021/12/26 06:59:43;;;;;;;3.83;3.63;;;-1.40;99.90;;;;;;4990263;28;20464;-66
2021/12/26 07:02:10;;;;;;;0.90;0.70;;;-1.50;99.90;;;;;;4985492;28;20458;-65
2021/12/26 07:04:37;;;;;;;6.17;2.80;;;-1.40;99.90;;;;;;5002947;28;20893;-66
2021/12/26 07:07:04;;;;;;;0.90;0.70;;;-1.30;99.90;;;;;;4997413;28;20438;-66
2021/12/26 07:09:33;;;;;;;1.10;1.00;;;-1.20;99.90;;;;;;5008201;28;20619;-66
2021/12/26 07:12:00;;;;;;;2.00;1.43;;;-1.30;99.90;;;;;;5004389;28;20465;-67
2021/12/26 07:14:27;;;;;;;0.90;0.70;;;-1.20;99.90;;;;;;5001959;28;21017;-67
2021/12/26 07:16:54;;;;;;;2.60;2.07;;;-1.20;99.90;;;;;;4986886;28;20485;-67
2021/12/26 07:19:21;;;;;;;2.03;1.57;;;-1.00;99.90;;;;;;4996334;28;20435;-67
2021/12/26 07:21:48;;;;;;;1.00;0.90;;;-0.90;99.90;;;;;;4988383;28;20472;-66
2021/12/26 07:24:15;;;;;;;1.70;1.53;;;-1.00;99.90;;;;;;5005583;28;20666;-67
2021/12/26 07:26:43;;;;;;;1.30;1.20;;;-0.90;99.90;;;;;;4981039;28;21048;-67
2021/12/26 07:29:10;;;;;;;1.90;1.70;;;-0.90;99.90;;;;;;4997576;28;21480;-67
2021/12/26 07:31:40;;;;;;;0.90;0.70;;;-0.80;99.90;;;;;;4976985;28;20625;-67
2021/12/26 07:34:08;;;;;;;11.63;1.57;;;-0.90;99.90;;;;;;4992591;28;20471;-67
2021/12/26 07:36:35;;;;;;;0.90;0.80;;;-0.90;99.90;;;;;;4972981;28;20537;-66
2021/12/26 07:39:02;;;;;;;1.67;1.57;;;-0.80;99.90;;;;;;4983520;28;20445;-66
2021/12/26 07:41:29;;;;;;;4.40;3.10;;;-0.80;99.90;;;;;;5003707;28;20435;-66
2021/12/26 07:43:57;;;;;;;6.97;2.20;;;-0.70;99.90;;;;;;4991988;28;20566;-67
2021/12/26 07:46:24;;;;;;;1.70;1.60;;;-0.50;99.90;;;;;;5005100;28;20617;-67
2021/12/26 07:48:51;;;;;;;5.60;1.27;;;-0.50;99.90;;;;;;4998931;28;20534;-66
2021/12/26 07:51:20;;;;;;;0.90;0.80;;;-0.50;99.90;;;;;;4993655;28;20478;-67
2021/12/26 07:53:49;;;;;;;2.47;1.50;;;-0.60;99.90;;;;;;5004728;28;20457;-65
2021/12/26 07:56:16;;;;;;;2.20;1.77;;;-0.70;99.90;;;;;;4956940;28;20573;-66
2021/12/26 07:58:43;;;;;;;6.60;1.90;;;-0.60;99.90;;;;;;4981339;28;20464;-67
2021/12/26 08:01:11;;;;;;;2.43;1.77;;;-0.50;99.90;;;;;;5003499;28;20427;-66
2021/12/26 08:03:39;;;;;;;1.27;1.17;;;-0.60;99.90;;;;;;4994995;28;20539;-67
2021/12/26 08:06:07;;;;;;;1.70;1.60;;;-0.60;99.90;;;;;;4981824;28;20438;-69
2021/12/26 08:08:35;;;;;;;2.70;2.20;;;-0.70;99.90;;;;;;4991426;28;20446;-67
2021/12/26 08:11:02;;;;;;;3.17;2.20;;;-0.60;99.90;;;;;;4978721;28;20461;-67
2021/12/26 08:13:31;;;;;;;4.70;3.03;;;-0.50;99.90;;;;;;4990531;28;20503;-68
2021/12/26 08:15:58;;;;;;;1.00;0.90;;;-0.40;99.90;;;;;;4987531;28;20893;-68
2021/12/26 08:18:27;;;;;;;1.53;1.30;;;-0.40;99.90;;;;;;4993689;28;20491;-66
2021/12/26 08:20:54;;;;;;;2.60;2.40;;;-0.50;99.90;;;;;;5016747;28;21647;-66
2021/12/26 08:23:21;;;;;;;2.33;2.13;;;-0.40;99.90;;;;;;5002381;28;20671;-67
2021/12/26 08:25:48;;;;;;;6.20;2.33;;;-0.30;99.90;;;;;;4997655;28;20750;-67
2021/12/26 08:28:15;;;;;;;2.73;2.20;;;-0.40;99.90;;;;;;4985138;28;20447;-68
2021/12/26 08:30:43;;;;;;;1.70;1.60;;;-0.30;99.90;;;;;;5001462;28;20446;-68
2021/12/26 08:33:10;;;;;;;2.47;1.13;;;-0.30;99.90;;;;;;4996717;28;20495;-68
2021/12/26 08:35:41;;;;;;;3.43;2.23;;;-0.40;99.90;;;;;;4990259;28;20574;-66
2021/12/26 08:38:08;;;;;;;6.13;2.47;;;-0.40;99.90;;;;;;5007450;28;20461;-67
2021/12/26 08:40:36;;;;;;;1.10;0.93;;;-0.40;99.90;;;;;;5009116;28;20427;-66
2021/12/26 08:43:03;;;;;;;2.20;1.70;;;-0.30;99.90;;;;;;5006484;28;21018;-67
2021/12/26 08:45:30;;;;;;;1.40;1.30;;;-0.30;99.90;;;;;;4999855;28;20458;-69
2021/12/26 08:47:57;;;;;;;3.97;2.47;;;-0.30;99.90;;;;;;5015979;28;20481;-69
2021/12/26 08:50:26;;;;;;;1.07;0.97;;;-0.30;99.90;;;;;;5000801;28;20453;-66
2021/12/26 08:52:55;;;;;;;1.10;1.00;;;-0.30;99.90;;;;;;4999218;28;21144;-67
2021/12/26 08:55:24;;;;;;;0.90;0.70;;;-0.50;99.90;;;;;;4985387;28;20440;-67
2021/12/26 08:57:52;;;;;;;2.57;1.97;;;-0.60;99.90;;;;;;4990151;28;20468;-67
2021/12/26 09:00:20;;;;;;;4.40;2.63;;;-0.60;99.90;;;;;;5002532;28;20998;-67
2021/12/26 09:02:47;;;;;;;1.40;0.90;;;-0.50;99.90;;;;;;4972906;28;20836;-66
2021/12/26 09:05:14;;;;;;;2.13;1.93;;;-0.50;99.90;;;;;;4968269;28;20617;-66
2021/12/26 09:07:42;;;;;;;2.13;2.00;;;-0.50;99.90;;;;;;4984328;28;20918;-66
2021/12/26 09:10:13;;;;;;;1.43;1.33;;;-0.40;99.90;;;;;;4983601;28;20435;-67
2021/12/26 09:12:40;;;;;;;3.73;1.67;;;-0.50;99.90;;;;;;4999932;28;20939;-68
2021/12/26 09:15:10;;;;;;;2.43;1.57;;;-0.30;99.90;;;;;;4993808;28;20502;-67
2021/12/26 09:17:37;;;;;;;1.40;1.30;;;-0.20;99.90;;;;;;5010870;28;20534;-67
2021/12/26 09:20:05;;;;;;;1.73;1.33;;;-0.20;99.90;;;;;;4999004;28;20535;-66
2021/12/26 09:22:32;;;;;;;3.70;2.63;;;-0.10;99.90;;;;;;4997693;28;20553;-66
2021/12/26 09:24:59;;;;;;;4.33;2.33;;;0.00;99.90;;;;;;4996462;28;20498;-67
2021/12/26 09:27:28;;;;;;;7.70;2.03;;;0.10;99.90;;;;;;4995859;28;20901;-67
2021/12/26 09:29:55;;;;;;;6.60;2.27;;;0.20;99.90;;;;;;5002533;28;20472;-66
2021/12/26 09:32:22;;;;;;;1.00;0.90;;;0.20;99.90;;;;;;5009417;28;20521;-66
2021/12/26 09:34:49;;;;;;;2.07;1.87;;;0.30;99.90;;;;;;5000442;28;21035;-67
2021/12/26 09:37:16;;;;;;;1.63;1.53;;;0.20;99.90;;;;;;4974529;28;20602;-65
2021/12/26 09:39:43;;;;;;;2.87;1.60;;;0.20;99.90;;;;;;4969589;28;20453;-66
2021/12/26 09:42:10;;;;;;;1.67;1.57;;;0.00;99.90;;;;;;4996659;28;20583;-67
2021/12/26 09:44:39;;;;;;;1.83;1.53;;;0.10;99.90;;;;;;5000281;28;20572;-67
2021/12/26 09:47:08;;;;;;;1.53;1.37;;;0.10;99.90;;;;;;4950285;28;20558;-68
2021/12/26 09:49:36;;;;;;;2.90;1.70;;;0.00;99.90;;;;;;5009733;28;20980;-64
2021/12/26 09:52:03;;;;;;;6.57;2.40;;;0.00;99.90;;;;;;4989374;28;20703;-66
2021/12/26 09:54:31;;;;;;;1.00;0.90;;;0.20;99.90;;;;;;4978825;28;20480;-68
2021/12/26 09:56:58;;;;;;;1.63;1.53;;;0.50;99.90;;;;;;4979319;28;20459;-67
2021/12/26 09:59:27;;;;;;;4.57;2.57;;;0.40;99.90;;;;;;4997167;28;20446;-67
2021/12/26 10:02:00;;;;;;;1.57;1.47;;;0.50;99.90;;;;;;4986537;28;20435;-66
2021/12/26 10:04:29;;;;;;;2.40;1.40;;;0.50;99.90;;;;;;4972994;28;20539;-65
2021/12/26 10:07:01;;;;;;;1.83;1.10;;;0.30;99.90;;;;;;5003182;28;20431;-66
2021/12/26 10:09:29;;;;;;;2.23;1.90;;;0.50;99.90;;;;;;4995954;28;20457;-67
2021/12/26 10:11:58;;;;;;;5.10;1.97;;;0.50;99.90;;;;;;4963460;28;21736;-68
2021/12/26 10:14:28;;;;;;;1.90;1.70;;;0.60;99.90;;;;;;4985769;28;20502;-67
2021/12/26 10:16:59;;;;;;;5.43;3.07;;;0.80;99.90;;;;;;4982530;28;20597;-65
2021/12/26 10:19:26;;;;;;;1.60;1.50;;;0.80;99.90;;;;;;4979916;28;21158;-67
2021/12/26 10:21:54;;;;;;;1.17;1.07;;;0.80;99.90;;;;;;4984992;28;21078;-67
2021/12/26 10:24:23;;;;;;;2.30;2.10;;;0.80;99.90;;;;;;5009551;28;22608;-67
2021/12/26 10:26:53;;;;;;;6.57;2.80;;;0.90;99.90;;;;;;4993839;28;20542;-67
2021/12/26 10:29:26;;;;;;;5.10;4.00;;;1.00;99.90;;;;;;4988790;28;20431;-67
2021/12/26 10:32:02;;;;;;;4.13;1.30;;;1.10;99.90;;;;;;4981895;28;20609;-67
2021/12/26 10:34:32;;;;;;;5.60;5.10;;;1.30;99.90;;;;;;5000313;28;20585;-67
2021/12/26 10:37:02;;;;;;;2.60;1.77;;;1.20;99.90;;;;;;4998284;28;20583;-67
2021/12/26 10:39:30;;;;;;;2.83;2.50;;;1.00;99.90;;;;;;4996886;28;20525;-66
2021/12/26 10:42:00;;;;;;;4.53;2.20;;;1.00;99.90;;;;;;5007541;28;20439;-67
2021/12/26 10:44:31;;;;;;;3.60;3.10;;;1.30;99.90;;;;;;5002943;28;20512;-67
2021/12/26 10:47:05;;;;;;;4.07;2.20;;;1.50;99.90;;;;;;4996261;28;20446;-67
2021/12/26 10:49:36;;;;;;;1.73;1.63;;;1.70;99.90;;;;;;5002681;28;20439;-66
2021/12/26 10:52:15;;;;;;;2.57;1.70;;;1.70;99.90;;;;;;5008871;28;20474;-67
2021/12/26 10:54:44;;;;;;;3.97;3.10;;;1.60;99.90;;;;;;5005762;28;20450;-66
2021/12/26 10:57:19;;;;;;;1.63;1.33;;;1.80;99.90;;;;;;4982191;28;20467;-68
2021/12/26 10:59:48;;;;;;;4.40;3.00;;;2.10;99.90;;;;;;4982191;28;20449;-67
2021/12/26 11:02:25;;;;;;;3.30;3.00;;;2.10;99.90;;;;;;4997365;28;20442;-66
2021/12/26 11:05:03;;;;;;;2.83;2.50;;;2.60;99.90;;;;;;5001896;28;20487;-68
2021/12/26 11:07:38;;;;;;;2.90;2.60;;;2.70;99.90;;;;;;4987297;28;22451;-67
2021/12/26 11:10:09;;;;;;;5.77;2.83;;;2.70;99.90;;;;;;5004560;28;20545;-68
2021/12/26 11:12:38;;;;;;;5.87;3.07;;;2.90;99.90;;;;;;5008374;28;20489;-68
2021/12/26 11:15:07;;;;;;;2.23;2.03;;;3.30;99.90;;;;;;5014807;28;20574;-68
2021/12/26 11:17:38;;;;;;;2.93;2.70;;;3.30;99.90;;;;;;4997810;28;20491;-67
2021/12/26 11:20:06;;;;;;;1.67;1.47;;;2.70;99.90;;;;;;5007027;28;20456;-68
2021/12/26 11:22:33;;;;;;;3.80;3.40;;;2.50;99.90;;;;;;5001008;28;21172;-67
2021/12/26 11:25:00;;;;;;;12.07;3.90;;;2.40;99.90;;;;;;5004399;28;20832;-67
2021/12/26 11:27:28;;;;;;;6.30;2.40;;;2.70;99.90;;;;;;4978271;28;22273;-67
2021/12/26 11:29:55;;;;;;;1.73;1.63;;;2.60;99.90;;;;;;4986980;28;20461;-67
2021/12/26 11:32:26;;;;;;;2.73;2.53;;;2.40;99.90;;;;;;4992326;28;20477;-66
2021/12/26 11:34:58;;;;;;;5.23;3.80;;;2.40;99.90;;;;;;4957617;28;20496;-67
2021/12/26 11:37:26;;;;;;;3.17;2.30;;;2.60;99.90;;;;;;4956886;28;21085;-66
2021/12/26 11:39:54;;;;;;;4.40;1.67;;;2.60;99.90;;;;;;5000207;28;21429;-67
2021/12/26 11:43:07;;;;;;;1.93;1.23;;;2.50;99.90;;;;;;5010654;28;20539;-68
2021/12/26 11:45:42;;;;;;;2.37;2.13;;;2.10;99.90;;;;;;4995748;28;20499;-68
2021/12/26 11:48:39;;;;;;;5.00;2.50;;;2.00;99.90;;;;;;5003653;28;20546;-68
2021/12/26 11:51:28;;;;;;;3.93;1.67;;;1.90;99.90;;;;;;4990587;28;20461;-67
2021/12/26 11:54:43;;;;;;;3.77;2.10;;;1.80;99.90;;;;;;4978509;28;20476;-66
2021/12/26 11:57:35;;;;;;;2.43;2.20;;;1.90;99.90;;;;;;4935547;28;20492;-66
2021/12/26 12:00:08;;;;;;;1.73;1.10;;;1.90;99.90;;;;;;4983753;28;21530;-67
2021/12/26 12:02:39;;;;;;;3.43;3.10;;;1.90;99.90;;;;;;4975615;28;20861;-67
2021/12/26 12:05:12;;;;;;;1.97;1.77;;;1.90;99.90;;;;;;4994579;28;20545;-66
2021/12/26 12:07:51;;;;;;;2.00;1.27;;;1.80;99.90;;;;;;5016563;28;20526;-67
2021/12/26 12:10:40;;;;;;;1.63;1.13;;;1.70;99.90;;;;;;5005766;28;20515;-68
2021/12/26 12:13:07;;;;;;;2.73;2.60;;;1.60;99.90;;;;;;4985804;28;20443;-68
2021/12/26 12:15:50;;;;;;;4.50;2.67;;;1.70;99.90;;;;;;5009054;28;20502;-69
2021/12/26 12:18:20;;;;;;;3.43;1.73;;;1.70;99.90;;;;;;5005942;28;20447;-68
2021/12/26 12:20:48;;;;;;;5.03;3.07;;;1.90;99.90;;;;;;4999552;28;20461;-69
2021/12/26 12:23:19;;;;;;;2.67;2.47;;;2.00;99.90;;;;;;5005431;28;20509;-68
2021/12/26 12:25:52;;;;;;;5.10;1.90;;;2.10;99.90;;;;;;4976102;28;20443;-68
2021/12/26 12:28:28;;;;;;;3.20;2.93;;;2.20;99.90;;;;;;4986329;28;20419;-67
2021/12/26 12:30:58;;;;;;;7.50;3.00;;;2.10;99.90;;;;;;4997933;28;20992;-66
2021/12/26 12:33:29;;;;;;;6.10;1.90;;;2.10;99.90;;;;;;4974419;28;20458;-68
2021/12/26 12:36:02;;;;;;;3.23;3.03;;;2.30;99.90;;;;;;4994094;28;20450;-68
2021/12/26 12:38:38;;;;;;;3.23;2.63;;;2.20;99.90;;;;;;4992841;28;20813;-68
2021/12/26 12:41:08;;;;;;;2.53;2.10;;;2.10;99.90;;;;;;4991030;28;20488;-69
2021/12/26 12:43:44;;;;;;;6.50;1.73;;;2.20;99.90;;;;;;4970513;28;20482;-66
2021/12/26 12:46:11;;;;;;;3.43;2.70;;;2.20;99.90;;;;;;4976211;28;20610;-67
2021/12/26 12:48:50;;;;;;;3.80;3.43;;;2.20;99.90;;;;;;4989338;28;20465;-66
2021/12/26 12:51:44;;;;;;;1.83;1.67;;;2.10;99.90;;;;;;5001986;28;21166;-68
2021/12/26 12:54:30;;;;;;;2.63;2.07;;;2.20;99.90;;;;;;4989166;28;20455;-67
2021/12/26 12:56:58;;;;;;;3.80;2.30;;;2.10;99.90;;;;;;4976334;28;20499;-67
2021/12/26 12:59:38;;;;;;;1.00;0.80;;;2.10;99.90;;;;;;4991367;28;21004;-67
2021/12/26 13:02:09;;;;;;;3.03;2.63;;;2.10;99.90;;;;;;4982088;28;21316;-66